sensor_id;sensor_type;location;lat;lon;timestamp;P1;durP1;ratioP1;P2;durP2;ratioP2
10511;SDS011;5304;48.604;2.096;2023-05-10T00:01:00;6.10;;;1.60;;
10511;SDS011;5304;48.604;2.096;2023-05-10T00:03:45;5.80;;;1.60;;
10511;SDS011;5304;48.604;2.096;2023-05-10T00:06:29;3.53;;;1.80;;
10511;SDS011;5304;48.604;2.096;2023-05-10T00:09:14;4.57;;;1.63;;
10511;SDS011;5304;48.604;2.096;2023-05-10T00:11:59;4.23;;;1.60;;
10511;SDS011;5304;48.604;2.096;2023-05-10T00:14:43;3.83;;;1.70;;
10511;SDS011;5304;48.604;2.096;2023-05-10T00:17:28;5.10;;;1.20;;
10511;SDS011;5304;48.604;2.096;2023-05-10T00:20:12;5.17;;;1.90;;
10511;SDS011;5304;48.604;2.096;2023-05-10T00:22:57;5.13;;;1.83;;
10511;SDS011;5304;48.604;2.096;2023-05-10T00:25:42;4.40;;;1.50;;
10511;SDS011;5304;48.604;2.096;2023-05-10T00:28:27;4.70;;;1.63;;
10511;SDS011;5304;48.604;2.096;2023-05-10T00:31:12;3.87;;;1.73;;
10511;SDS011;5304;48.604;2.096;2023-05-10T00:33:58;6.40;;;1.90;;
10511;SDS011;5304;48.604;2.096;2023-05-10T00:36:43;3.10;;;1.30;;
10511;SDS011;5304;48.604;2.096;2023-05-10T00:39:27;6.90;;;1.90;;
10511;SDS011;5304;48.604;2.096;2023-05-10T00:42:12;3.93;;;1.67;;
10511;SDS011;5304;48.604;2.096;2023-05-10T00:44:57;2.20;;;1.53;;
10511;SDS011;5304;48.604;2.096;2023-05-10T00:47:42;7.80;;;1.90;;
10511;SDS011;5304;48.604;2.096;2023-05-10T00:50:26;6.23;;;1.50;;
10511;SDS011;5304;48.604;2.096;2023-05-10T00:53:10;3.57;;;1.60;;
10511;SDS011;5304;48.604;2.096;2023-05-10T00:55:56;5.57;;;1.50;;
10511;SDS011;5304;48.604;2.096;2023-05-10T00:58:40;4.97;;;1.73;;
10511;SDS011;5304;48.604;2.096;2023-05-10T01:01:25;5.57;;;1.33;;
10511;SDS011;5304;48.604;2.096;2023-05-10T01:04:10;5.23;;;1.47;;
10511;SDS011;5304;48.604;2.096;2023-05-10T01:06:56;2.07;;;1.43;;
10511;SDS011;5304;48.604;2.096;2023-05-10T01:09:41;5.47;;;1.87;;
10511;SDS011;5304;48.604;2.096;2023-05-10T01:12:25;5.27;;;1.93;;
10511;SDS011;5304;48.604;2.096;2023-05-10T01:15:10;3.40;;;1.40;;
10511;SDS011;5304;48.604;2.096;2023-05-10T01:17:56;7.30;;;1.83;;
10511;SDS011;5304;48.604;2.096;2023-05-10T01:20:41;6.70;;;1.60;;
10511;SDS011;5304;48.604;2.096;2023-05-10T01:23:31;2.90;;;1.63;;
10511;SDS011;5304;48.604;2.096;2023-05-10T01:42:11;3.63;;;1.47;;
10511;SDS011;5304;48.604;2.096;2023-05-10T01:45:18;6.67;;;1.80;;
10511;SDS011;5304;48.604;2.096;2023-05-10T01:48:28;3.97;;;1.40;;
10511;SDS011;5304;48.604;2.096;2023-05-10T01:51:19;5.07;;;1.53;;
10511;SDS011;5304;48.604;2.096;2023-05-10T01:54:07;4.00;;;1.40;;
10511;SDS011;5304;48.604;2.096;2023-05-10T01:56:55;4.10;;;1.70;;
10511;SDS011;5304;48.604;2.096;2023-05-10T01:59:44;6.70;;;1.33;;
10511;SDS011;5304;48.604;2.096;2023-05-10T02:02:33;2.67;;;1.20;;
10511;SDS011;5304;48.604;2.096;2023-05-10T02:05:20;5.47;;;1.63;;
10511;SDS011;5304;48.604;2.096;2023-05-10T02:08:06;5.93;;;1.77;;
10511;SDS011;5304;48.604;2.096;2023-05-10T02:10:55;4.80;;;1.70;;
10511;SDS011;5304;48.604;2.096;2023-05-10T02:13:40;5.20;;;1.47;;
10511;SDS011;5304;48.604;2.096;2023-05-10T02:16:27;5.60;;;1.53;;
10511;SDS011;5304;48.604;2.096;2023-05-10T02:19:14;3.47;;;1.70;;
10511;SDS011;5304;48.604;2.096;2023-05-10T02:22:00;3.33;;;1.50;;
10511;SDS011;5304;48.604;2.096;2023-05-10T02:24:47;4.33;;;1.63;;
10511;SDS011;5304;48.604;2.096;2023-05-10T02:27:33;2.80;;;1.30;;
10511;SDS011;5304;48.604;2.096;2023-05-10T02:30:20;3.43;;;1.73;;
10511;SDS011;5304;48.604;2.096;2023-05-10T02:33:06;4.80;;;1.60;;
10511;SDS011;5304;48.604;2.096;2023-05-10T02:35:51;2.93;;;1.93;;
10511;SDS011;5304;48.604;2.096;2023-05-10T02:38:37;3.27;;;1.70;;
10511;SDS011;5304;48.604;2.096;2023-05-10T02:41:22;10.00;;;2.20;;
10511;SDS011;5304;48.604;2.096;2023-05-10T02:44:07;3.27;;;1.50;;
10511;SDS011;5304;48.604;2.096;2023-05-10T02:46:54;3.07;;;1.80;;
10511;SDS011;5304;48.604;2.096;2023-05-10T02:49:39;5.50;;;1.50;;
10511;SDS011;5304;48.604;2.096;2023-05-10T02:52:28;4.40;;;2.20;;
10511;SDS011;5304;48.604;2.096;2023-05-10T02:55:27;5.73;;;1.60;;
10511;SDS011;5304;48.604;2.096;2023-05-10T02:58:16;2.53;;;1.60;;
10511;SDS011;5304;48.604;2.096;2023-05-10T03:01:02;6.53;;;1.90;;
10511;SDS011;5304;48.604;2.096;2023-05-10T03:03:47;3.07;;;1.30;;
10511;SDS011;5304;48.604;2.096;2023-05-10T03:06:31;5.33;;;1.57;;
10511;SDS011;5304;48.604;2.096;2023-05-10T03:09:16;2.50;;;1.50;;
10511;SDS011;5304;48.604;2.096;2023-05-10T03:12:07;5.13;;;1.43;;
10511;SDS011;5304;48.604;2.096;2023-05-10T03:21:25;3.57;;;1.50;;
10511;SDS011;5304;48.604;2.096;2023-05-10T03:24:12;4.67;;;1.70;;
10511;SDS011;5304;48.604;2.096;2023-05-10T03:26:59;6.27;;;1.63;;
10511;SDS011;5304;48.604;2.096;2023-05-10T03:29:46;4.37;;;2.03;;
10511;SDS011;5304;48.604;2.096;2023-05-10T03:32:32;4.67;;;1.80;;
10511;SDS011;5304;48.604;2.096;2023-05-10T03:35:18;6.90;;;1.77;;
10511;SDS011;5304;48.604;2.096;2023-05-10T03:38:03;3.87;;;1.70;;
10511;SDS011;5304;48.604;2.096;2023-05-10T03:40:47;7.47;;;2.40;;
10511;SDS011;5304;48.604;2.096;2023-05-10T03:43:32;3.73;;;1.80;;
10511;SDS011;5304;48.604;2.096;2023-05-10T03:46:16;2.33;;;1.73;;
10511;SDS011;5304;48.604;2.096;2023-05-10T03:49:01;2.33;;;1.67;;
10511;SDS011;5304;48.604;2.096;2023-05-10T03:51:45;3.67;;;1.53;;
10511;SDS011;5304;48.604;2.096;2023-05-10T03:54:30;3.87;;;1.63;;
10511;SDS011;5304;48.604;2.096;2023-05-10T03:57:14;2.67;;;1.90;;
10511;SDS011;5304;48.604;2.096;2023-05-10T03:59:59;3.57;;;1.60;;
10511;SDS011;5304;48.604;2.096;2023-05-10T04:02:43;3.33;;;1.77;;
10511;SDS011;5304;48.604;2.096;2023-05-10T04:05:28;3.13;;;1.77;;
10511;SDS011;5304;48.604;2.096;2023-05-10T04:08:12;2.67;;;1.40;;
10511;SDS011;5304;48.604;2.096;2023-05-10T04:11:07;4.20;;;1.60;;
10511;SDS011;5304;48.604;2.096;2023-05-10T04:13:55;2.80;;;1.87;;
10511;SDS011;5304;48.604;2.096;2023-05-10T04:16:40;5.27;;;1.93;;
10511;SDS011;5304;48.604;2.096;2023-05-10T04:19:28;4.73;;;2.53;;
10511;SDS011;5304;48.604;2.096;2023-05-10T04:22:13;3.07;;;1.47;;
10511;SDS011;5304;48.604;2.096;2023-05-10T04:25:00;2.83;;;1.60;;
10511;SDS011;5304;48.604;2.096;2023-05-10T04:27:44;7.10;;;2.10;;
10511;SDS011;5304;48.604;2.096;2023-05-10T04:30:29;3.90;;;2.00;;
10511;SDS011;5304;48.604;2.096;2023-05-10T04:33:13;4.40;;;1.80;;
10511;SDS011;5304;48.604;2.096;2023-05-10T04:35:57;3.27;;;1.97;;
10511;SDS011;5304;48.604;2.096;2023-05-10T04:38:42;3.97;;;1.90;;
10511;SDS011;5304;48.604;2.096;2023-05-10T04:41:27;2.13;;;1.87;;
10511;SDS011;5304;48.604;2.096;2023-05-10T04:44:11;4.57;;;2.00;;
10511;SDS011;5304;48.604;2.096;2023-05-10T04:46:57;3.83;;;2.07;;
10511;SDS011;5304;48.604;2.096;2023-05-10T04:49:41;3.00;;;2.70;;
10511;SDS011;5304;48.604;2.096;2023-05-10T04:52:26;4.43;;;2.00;;
10511;SDS011;5304;48.604;2.096;2023-05-10T04:55:10;2.10;;;1.87;;
10511;SDS011;5304;48.604;2.096;2023-05-10T04:57:55;2.33;;;1.80;;
10511;SDS011;5304;48.604;2.096;2023-05-10T05:00:40;4.00;;;1.93;;
10511;SDS011;5304;48.604;2.096;2023-05-10T05:03:25;3.13;;;2.07;;
10511;SDS011;5304;48.604;2.096;2023-05-10T05:06:10;4.30;;;2.20;;
10511;SDS011;5304;48.604;2.096;2023-05-10T05:08:56;3.70;;;1.80;;
10511;SDS011;5304;48.604;2.096;2023-05-10T05:11:41;3.07;;;1.80;;
10511;SDS011;5304;48.604;2.096;2023-05-10T05:14:25;5.20;;;1.73;;
10511;SDS011;5304;48.604;2.096;2023-05-10T05:17:10;1.73;;;1.63;;
10511;SDS011;5304;48.604;2.096;2023-05-10T05:19:54;2.60;;;1.60;;
10511;SDS011;5304;48.604;2.096;2023-05-10T05:22:39;4.17;;;1.60;;
10511;SDS011;5304;48.604;2.096;2023-05-10T05:25:24;3.33;;;1.97;;
10511;SDS011;5304;48.604;2.096;2023-05-10T05:28:08;2.30;;;1.97;;
10511;SDS011;5304;48.604;2.096;2023-05-10T05:30:53;2.27;;;1.40;;
10511;SDS011;5304;48.604;2.096;2023-05-10T05:33:37;1.90;;;1.80;;
10511;SDS011;5304;48.604;2.096;2023-05-10T05:36:22;2.83;;;1.80;;
10511;SDS011;5304;48.604;2.096;2023-05-10T05:39:06;6.00;;;2.13;;
10511;SDS011;5304;48.604;2.096;2023-05-10T05:41:51;1.60;;;1.50;;
10511;SDS011;5304;48.604;2.096;2023-05-10T05:44:35;3.20;;;1.50;;
10511;SDS011;5304;48.604;2.096;2023-05-10T05:47:20;1.80;;;1.70;;
10511;SDS011;5304;48.604;2.096;2023-05-10T05:50:04;3.00;;;1.93;;
10511;SDS011;5304;48.604;2.096;2023-05-10T05:52:49;1.67;;;1.57;;
10511;SDS011;5304;48.604;2.096;2023-05-10T05:55:34;1.67;;;1.57;;
10511;SDS011;5304;48.604;2.096;2023-05-10T05:58:19;3.13;;;1.63;;
10511;SDS011;5304;48.604;2.096;2023-05-10T06:01:04;1.53;;;1.43;;
10511;SDS011;5304;48.604;2.096;2023-05-10T06:03:48;2.27;;;1.40;;
10511;SDS011;5304;48.604;2.096;2023-05-10T06:06:33;4.50;;;2.13;;
10511;SDS011;5304;48.604;2.096;2023-05-10T06:09:17;1.53;;;1.43;;
10511;SDS011;5304;48.604;2.096;2023-05-10T06:12:02;3.73;;;1.33;;
10511;SDS011;5304;48.604;2.096;2023-05-10T06:14:46;2.10;;;1.57;;
10511;SDS011;5304;48.604;2.096;2023-05-10T06:17:31;2.60;;;1.70;;
10511;SDS011;5304;48.604;2.096;2023-05-10T06:20:15;2.43;;;1.30;;
10511;SDS011;5304;48.604;2.096;2023-05-10T06:22:59;1.60;;;1.40;;
10511;SDS011;5304;48.604;2.096;2023-05-10T06:25:44;2.60;;;1.30;;
10511;SDS011;5304;48.604;2.096;2023-05-10T06:28:29;2.40;;;1.40;;
10511;SDS011;5304;48.604;2.096;2023-05-10T06:31:15;2.63;;;1.20;;
10511;SDS011;5304;48.604;2.096;2023-05-10T06:34:00;1.30;;;1.20;;
10511;SDS011;5304;48.604;2.096;2023-05-10T06:36:44;3.07;;;1.17;;
10511;SDS011;5304;48.604;2.096;2023-05-10T06:39:29;1.77;;;1.20;;
10511;SDS011;5304;48.604;2.096;2023-05-10T06:42:13;1.63;;;1.30;;
10511;SDS011;5304;48.604;2.096;2023-05-10T06:44:58;1.70;;;1.47;;
10511;SDS011;5304;48.604;2.096;2023-05-10T06:47:42;2.37;;;1.70;;
10511;SDS011;5304;48.604;2.096;2023-05-10T06:50:27;2.73;;;1.93;;
10511;SDS011;5304;48.604;2.096;2023-05-10T06:53:11;2.47;;;1.43;;
10511;SDS011;5304;48.604;2.096;2023-05-10T06:55:55;1.77;;;1.40;;
10511;SDS011;5304;48.604;2.096;2023-05-10T06:58:43;1.97;;;1.40;;
10511;SDS011;5304;48.604;2.096;2023-05-10T07:01:27;1.63;;;1.30;;
10511;SDS011;5304;48.604;2.096;2023-05-10T07:04:12;1.73;;;1.27;;
10511;SDS011;5304;48.604;2.096;2023-05-10T07:06:57;2.00;;;1.60;;
10511;SDS011;5304;48.604;2.096;2023-05-10T07:09:42;2.50;;;1.70;;
10511;SDS011;5304;48.604;2.096;2023-05-10T07:12:26;2.83;;;1.47;;
10511;SDS011;5304;48.604;2.096;2023-05-10T07:15:11;4.37;;;1.50;;
10511;SDS011;5304;48.604;2.096;2023-05-10T07:17:56;2.27;;;1.40;;
10511;SDS011;5304;48.604;2.096;2023-05-10T07:20:40;2.47;;;1.10;;
10511;SDS011;5304;48.604;2.096;2023-05-10T07:23:24;1.50;;;1.10;;
10511;SDS011;5304;48.604;2.096;2023-05-10T07:26:09;1.83;;;1.40;;
10511;SDS011;5304;48.604;2.096;2023-05-10T07:28:55;2.70;;;1.33;;
10511;SDS011;5304;48.604;2.096;2023-05-10T07:31:40;4.10;;;1.60;;
10511;SDS011;5304;48.604;2.096;2023-05-10T07:34:26;1.20;;;1.10;;
10511;SDS011;5304;48.604;2.096;2023-05-10T07:37:12;2.20;;;1.60;;
10511;SDS011;5304;48.604;2.096;2023-05-10T07:39:56;4.07;;;1.63;;
10511;SDS011;5304;48.604;2.096;2023-05-10T07:42:40;3.47;;;1.50;;
10511;SDS011;5304;48.604;2.096;2023-05-10T07:45:25;1.97;;;1.40;;
10511;SDS011;5304;48.604;2.096;2023-05-10T07:48:09;1.70;;;1.60;;
10511;SDS011;5304;48.604;2.096;2023-05-10T07:50:56;3.93;;;1.50;;
10511;SDS011;5304;48.604;2.096;2023-05-10T07:53:41;2.90;;;1.47;;
10511;SDS011;5304;48.604;2.096;2023-05-10T07:56:26;3.00;;;1.60;;
10511;SDS011;5304;48.604;2.096;2023-05-10T07:59:14;2.63;;;1.40;;
10511;SDS011;5304;48.604;2.096;2023-05-10T08:02:00;2.53;;;1.77;;
10511;SDS011;5304;48.604;2.096;2023-05-10T08:04:45;2.27;;;1.53;;
10511;SDS011;5304;48.604;2.096;2023-05-10T08:07:29;2.50;;;1.43;;
10511;SDS011;5304;48.604;2.096;2023-05-10T08:10:14;2.33;;;1.60;;
10511;SDS011;5304;48.604;2.096;2023-05-10T08:12:58;3.17;;;2.03;;
10511;SDS011;5304;48.604;2.096;2023-05-10T08:15:43;5.33;;;2.23;;
10511;SDS011;5304;48.604;2.096;2023-05-10T08:18:27;5.37;;;2.13;;
10511;SDS011;5304;48.604;2.096;2023-05-10T08:21:12;6.80;;;2.17;;
10511;SDS011;5304;48.604;2.096;2023-05-10T08:23:58;5.70;;;2.73;;
10511;SDS011;5304;48.604;2.096;2023-05-10T08:26:42;5.87;;;2.20;;
10511;SDS011;5304;48.604;2.096;2023-05-10T08:29:27;8.57;;;3.03;;
10511;SDS011;5304;48.604;2.096;2023-05-10T08:32:11;10.13;;;3.07;;
10511;SDS011;5304;48.604;2.096;2023-05-10T08:34:57;9.60;;;3.50;;
10511;SDS011;5304;48.604;2.096;2023-05-10T08:37:41;12.57;;;3.67;;
10511;SDS011;5304;48.604;2.096;2023-05-10T08:40:26;13.67;;;3.43;;
10511;SDS011;5304;48.604;2.096;2023-05-10T08:43:11;13.43;;;3.83;;
10511;SDS011;5304;48.604;2.096;2023-05-10T08:45:56;9.97;;;3.27;;
10511;SDS011;5304;48.604;2.096;2023-05-10T08:48:45;8.83;;;4.17;;
10511;SDS011;5304;48.604;2.096;2023-05-10T08:51:31;7.63;;;3.60;;
10511;SDS011;5304;48.604;2.096;2023-05-10T08:54:21;12.33;;;3.57;;
10511;SDS011;5304;48.604;2.096;2023-05-10T08:57:06;14.23;;;3.60;;
10511;SDS011;5304;48.604;2.096;2023-05-10T08:59:50;13.23;;;4.23;;
10511;SDS011;5304;48.604;2.096;2023-05-10T09:02:35;13.97;;;3.53;;
10511;SDS011;5304;48.604;2.096;2023-05-10T09:05:21;13.63;;;4.47;;
10511;SDS011;5304;48.604;2.096;2023-05-10T09:08:05;9.30;;;3.73;;
10511;SDS011;5304;48.604;2.096;2023-05-10T09:10:53;13.63;;;4.10;;
10511;SDS011;5304;48.604;2.096;2023-05-10T09:13:38;10.43;;;3.80;;
10511;SDS011;5304;48.604;2.096;2023-05-10T09:16:23;17.10;;;3.73;;
10511;SDS011;5304;48.604;2.096;2023-05-10T09:19:08;14.43;;;4.50;;
10511;SDS011;5304;48.604;2.096;2023-05-10T09:21:53;8.43;;;3.53;;
10511;SDS011;5304;48.604;2.096;2023-05-10T09:24:37;10.40;;;3.70;;
10511;SDS011;5304;48.604;2.096;2023-05-10T09:27:29;13.00;;;3.60;;
10511;SDS011;5304;48.604;2.096;2023-05-10T09:30:31;14.60;;;4.13;;
10511;SDS011;5304;48.604;2.096;2023-05-10T09:33:15;15.60;;;4.23;;
10511;SDS011;5304;48.604;2.096;2023-05-10T09:36:08;16.93;;;3.93;;
10511;SDS011;5304;48.604;2.096;2023-05-10T09:38:52;17.17;;;4.17;;
10511;SDS011;5304;48.604;2.096;2023-05-10T09:41:37;13.77;;;4.23;;
10511;SDS011;5304;48.604;2.096;2023-05-10T09:44:22;15.67;;;4.50;;
10511;SDS011;5304;48.604;2.096;2023-05-10T09:47:06;13.00;;;3.67;;
10511;SDS011;5304;48.604;2.096;2023-05-10T09:49:52;14.20;;;3.87;;
10511;SDS011;5304;48.604;2.096;2023-05-10T09:52:46;12.23;;;3.63;;
10511;SDS011;5304;48.604;2.096;2023-05-10T09:58:29;8.10;;;3.27;;
10511;SDS011;5304;48.604;2.096;2023-05-10T10:01:14;11.67;;;3.50;;
10511;SDS011;5304;48.604;2.096;2023-05-10T10:04:01;13.70;;;4.23;;
10511;SDS011;5304;48.604;2.096;2023-05-10T10:06:47;15.90;;;3.93;;
10511;SDS011;5304;48.604;2.096;2023-05-10T10:09:43;16.23;;;4.13;;
10511;SDS011;5304;48.604;2.096;2023-05-10T10:12:28;16.57;;;4.70;;
10511;SDS011;5304;48.604;2.096;2023-05-10T10:15:12;11.23;;;3.37;;
10511;SDS011;5304;48.604;2.096;2023-05-10T10:17:57;9.70;;;3.13;;
10511;SDS011;5304;48.604;2.096;2023-05-10T10:20:43;11.07;;;3.27;;
10511;SDS011;5304;48.604;2.096;2023-05-10T10:23:28;10.27;;;3.33;;
10511;SDS011;5304;48.604;2.096;2023-05-10T10:26:12;8.53;;;3.10;;
10511;SDS011;5304;48.604;2.096;2023-05-10T10:29:12;8.87;;;2.90;;
10511;SDS011;5304;48.604;2.096;2023-05-10T10:34:47;9.63;;;3.10;;
10511;SDS011;5304;48.604;2.096;2023-05-10T10:37:42;10.03;;;2.90;;
10511;SDS011;5304;48.604;2.096;2023-05-10T10:40:29;9.57;;;2.87;;
10511;SDS011;5304;48.604;2.096;2023-05-10T10:43:21;9.70;;;3.10;;
10511;SDS011;5304;48.604;2.096;2023-05-10T10:49:10;7.83;;;2.67;;
10511;SDS011;5304;48.604;2.096;2023-05-10T10:52:12;5.97;;;2.50;;
10511;SDS011;5304;48.604;2.096;2023-05-10T10:58:01;10.30;;;2.67;;
10511;SDS011;5304;48.604;2.096;2023-05-10T11:00:47;8.50;;;2.37;;
10511;SDS011;5304;48.604;2.096;2023-05-10T11:03:32;3.83;;;2.30;;
10511;SDS011;5304;48.604;2.096;2023-05-10T11:06:16;10.27;;;2.27;;
10511;SDS011;5304;48.604;2.096;2023-05-10T11:09:13;7.90;;;2.20;;
10511;SDS011;5304;48.604;2.096;2023-05-10T11:11:57;7.73;;;2.30;;
10511;SDS011;5304;48.604;2.096;2023-05-10T11:14:49;11.40;;;2.73;;
10511;SDS011;5304;48.604;2.096;2023-05-10T11:17:34;12.37;;;3.00;;
10511;SDS011;5304;48.604;2.096;2023-05-10T11:20:19;8.13;;;2.30;;
10511;SDS011;5304;48.604;2.096;2023-05-10T11:23:11;6.23;;;2.40;;
10511;SDS011;5304;48.604;2.096;2023-05-10T11:25:59;10.50;;;2.73;;
10511;SDS011;5304;48.604;2.096;2023-05-10T11:28:46;7.97;;;2.83;;
10511;SDS011;5304;48.604;2.096;2023-05-10T11:31:31;11.63;;;2.67;;
10511;SDS011;5304;48.604;2.096;2023-05-10T11:34:25;8.50;;;2.40;;
10511;SDS011;5304;48.604;2.096;2023-05-10T11:37:11;7.17;;;2.33;;
10511;SDS011;5304;48.604;2.096;2023-05-10T11:39:55;5.47;;;2.60;;
10511;SDS011;5304;48.604;2.096;2023-05-10T11:42:40;7.17;;;2.13;;
10511;SDS011;5304;48.604;2.096;2023-05-10T11:45:24;10.67;;;2.77;;
10511;SDS011;5304;48.604;2.096;2023-05-10T11:48:10;7.73;;;2.00;;
10511;SDS011;5304;48.604;2.096;2023-05-10T11:50:57;5.37;;;2.30;;
10511;SDS011;5304;48.604;2.096;2023-05-10T11:53:41;12.60;;;2.73;;
10511;SDS011;5304;48.604;2.096;2023-05-10T11:56:26;13.07;;;3.30;;
10511;SDS011;5304;48.604;2.096;2023-05-10T11:59:13;5.40;;;2.63;;
10511;SDS011;5304;48.604;2.096;2023-05-10T12:01:59;10.50;;;2.80;;
10511;SDS011;5304;48.604;2.096;2023-05-10T12:04:43;9.10;;;2.67;;
10511;SDS011;5304;48.604;2.096;2023-05-10T12:07:27;9.37;;;2.80;;
10511;SDS011;5304;48.604;2.096;2023-05-10T12:10:12;9.20;;;2.80;;
10511;SDS011;5304;48.604;2.096;2023-05-10T12:12:58;12.37;;;2.87;;
10511;SDS011;5304;48.604;2.096;2023-05-10T12:15:42;9.57;;;2.83;;
10511;SDS011;5304;48.604;2.096;2023-05-10T12:18:27;4.30;;;2.17;;
10511;SDS011;5304;48.604;2.096;2023-05-10T12:21:12;9.63;;;2.57;;
10511;SDS011;5304;48.604;2.096;2023-05-10T12:24:01;9.30;;;2.13;;
10511;SDS011;5304;48.604;2.096;2023-05-10T12:26:46;16.30;;;2.73;;
10511;SDS011;5304;48.604;2.096;2023-05-10T12:29:32;8.90;;;2.47;;
10511;SDS011;5304;48.604;2.096;2023-05-10T12:32:16;5.43;;;2.27;;
10511;SDS011;5304;48.604;2.096;2023-05-10T12:35:03;10.23;;;4.90;;
10511;SDS011;5304;48.604;2.096;2023-05-10T12:37:47;10.20;;;2.38;;
10511;SDS011;5304;48.604;2.096;2023-05-10T12:40:32;5.95;;;2.13;;
10511;SDS011;5304;48.604;2.096;2023-05-10T12:43:16;8.68;;;2.00;;
10511;SDS011;5304;48.604;2.096;2023-05-10T12:46:11;7.55;;;2.00;;
10511;SDS011;5304;48.604;2.096;2023-05-10T12:49:00;5.10;;;2.00;;
10511;SDS011;5304;48.604;2.096;2023-05-10T12:51:44;8.43;;;2.60;;
10511;SDS011;5304;48.604;2.096;2023-05-10T12:54:29;11.27;;;2.33;;
10511;SDS011;5304;48.604;2.096;2023-05-10T12:57:13;6.07;;;1.95;;
10511;SDS011;5304;48.604;2.096;2023-05-10T12:59:58;7.40;;;2.10;;
10511;SDS011;5304;48.604;2.096;2023-05-10T13:02:43;4.87;;;2.13;;
10511;SDS011;5304;48.604;2.096;2023-05-10T13:05:27;7.43;;;2.40;;
10511;SDS011;5304;48.604;2.096;2023-05-10T13:08:12;8.48;;;2.30;;
10511;SDS011;5304;48.604;2.096;2023-05-10T13:10:56;8.57;;;2.28;;
10511;SDS011;5304;48.604;2.096;2023-05-10T13:13:41;9.07;;;2.00;;
10511;SDS011;5304;48.604;2.096;2023-05-10T13:16:25;6.95;;;2.03;;
10511;SDS011;5304;48.604;2.096;2023-05-10T13:19:10;6.40;;;2.47;;
10511;SDS011;5304;48.604;2.096;2023-05-10T13:21:55;6.45;;;1.83;;
10511;SDS011;5304;48.604;2.096;2023-05-10T13:24:39;5.93;;;1.90;;
10511;SDS011;5304;48.604;2.096;2023-05-10T13:27:24;6.30;;;1.90;;
10511;SDS011;5304;48.604;2.096;2023-05-10T13:30:08;5.45;;;1.63;;
10511;SDS011;5304;48.604;2.096;2023-05-10T13:32:56;4.55;;;2.22;;
10511;SDS011;5304;48.604;2.096;2023-05-10T13:35:40;4.70;;;1.90;;
10511;SDS011;5304;48.604;2.096;2023-05-10T13:38:24;6.15;;;2.05;;
10511;SDS011;5304;48.604;2.096;2023-05-10T13:41:09;4.35;;;1.80;;
10511;SDS011;5304;48.604;2.096;2023-05-10T13:43:54;5.07;;;1.48;;
10511;SDS011;5304;48.604;2.096;2023-05-10T13:46:38;5.38;;;1.98;;
10511;SDS011;5304;48.604;2.096;2023-05-10T13:49:23;5.95;;;1.77;;
10511;SDS011;5304;48.604;2.096;2023-05-10T13:52:08;3.63;;;1.55;;
10511;SDS011;5304;48.604;2.096;2023-05-10T13:54:53;3.42;;;1.75;;
10511;SDS011;5304;48.604;2.096;2023-05-10T13:57:41;3.20;;;1.88;;
10511;SDS011;5304;48.604;2.096;2023-05-10T14:00:26;4.30;;;1.80;;
10511;SDS011;5304;48.604;2.096;2023-05-10T14:03:11;5.57;;;1.77;;
10511;SDS011;5304;48.604;2.096;2023-05-10T14:05:55;3.45;;;1.50;;
10511;SDS011;5304;48.604;2.096;2023-05-10T14:08:40;6.50;;;1.70;;
10511;SDS011;5304;48.604;2.096;2023-05-10T14:11:24;6.50;;;1.70;;
10511;SDS011;5304;48.604;2.096;2023-05-10T14:14:09;5.60;;;1.75;;
10511;SDS011;5304;48.604;2.096;2023-05-10T14:16:54;5.30;;;1.70;;
10511;SDS011;5304;48.604;2.096;2023-05-10T14:19:38;4.38;;;1.77;;
10511;SDS011;5304;48.604;2.096;2023-05-10T14:22:23;4.35;;;1.40;;
10511;SDS011;5304;48.604;2.096;2023-05-10T14:25:07;7.03;;;1.92;;
10511;SDS011;5304;48.604;2.096;2023-05-10T14:27:52;4.20;;;1.60;;
10511;SDS011;5304;48.604;2.096;2023-05-10T14:30:38;3.00;;;1.65;;
10511;SDS011;5304;48.604;2.096;2023-05-10T14:33:22;5.22;;;1.80;;
10511;SDS011;5304;48.604;2.096;2023-05-10T14:36:07;4.35;;;1.77;;
10511;SDS011;5304;48.604;2.096;2023-05-10T14:38:52;6.95;;;1.92;;
10511;SDS011;5304;48.604;2.096;2023-05-10T14:41:37;7.70;;;2.83;;
10511;SDS011;5304;48.604;2.096;2023-05-10T14:44:22;7.10;;;2.00;;
10511;SDS011;5304;48.604;2.096;2023-05-10T14:47:07;3.70;;;1.90;;
10511;SDS011;5304;48.604;2.096;2023-05-10T14:49:51;8.25;;;2.00;;
10511;SDS011;5304;48.604;2.096;2023-05-10T14:52:35;5.40;;;1.85;;
10511;SDS011;5304;48.604;2.096;2023-05-10T14:55:20;4.55;;;1.92;;
10511;SDS011;5304;48.604;2.096;2023-05-10T14:58:05;4.40;;;1.92;;
10511;SDS011;5304;48.604;2.096;2023-05-10T15:00:49;6.23;;;2.10;;
10511;SDS011;5304;48.604;2.096;2023-05-10T15:03:34;7.27;;;2.23;;
10511;SDS011;5304;48.604;2.096;2023-05-10T15:06:22;5.22;;;2.28;;
10511;SDS011;5304;48.604;2.096;2023-05-10T15:09:09;8.95;;;2.63;;
10511;SDS011;5304;48.604;2.096;2023-05-10T15:11:53;9.97;;;2.80;;
10511;SDS011;5304;48.604;2.096;2023-05-10T15:14:39;3.97;;;2.17;;
10511;SDS011;5304;48.604;2.096;2023-05-10T15:17:23;5.57;;;2.50;;
10511;SDS011;5304;48.604;2.096;2023-05-10T15:20:07;6.37;;;2.87;;
10511;SDS011;5304;48.604;2.096;2023-05-10T15:22:52;6.90;;;2.20;;
10511;SDS011;5304;48.604;2.096;2023-05-10T15:25:36;7.67;;;2.07;;
10511;SDS011;5304;48.604;2.096;2023-05-10T15:28:21;6.70;;;2.30;;
10511;SDS011;5304;48.604;2.096;2023-05-10T15:31:06;7.17;;;2.13;;
10511;SDS011;5304;48.604;2.096;2023-05-10T15:33:50;3.47;;;1.60;;
10511;SDS011;5304;48.604;2.096;2023-05-10T15:36:34;9.33;;;1.97;;
10511;SDS011;5304;48.604;2.096;2023-05-10T15:39:19;5.37;;;1.87;;
10511;SDS011;5304;48.604;2.096;2023-05-10T15:42:03;6.37;;;1.90;;
10511;SDS011;5304;48.604;2.096;2023-05-10T15:44:47;4.50;;;2.10;;
10511;SDS011;5304;48.604;2.096;2023-05-10T15:47:34;4.07;;;1.77;;
10511;SDS011;5304;48.604;2.096;2023-05-10T15:50:18;2.00;;;1.60;;
10511;SDS011;5304;48.604;2.096;2023-05-10T15:53:02;3.87;;;1.60;;
10511;SDS011;5304;48.604;2.096;2023-05-10T15:55:47;4.40;;;1.87;;
10511;SDS011;5304;48.604;2.096;2023-05-10T15:58:31;1.93;;;1.70;;
10511;SDS011;5304;48.604;2.096;2023-05-10T16:01:16;3.10;;;1.60;;
10511;SDS011;5304;48.604;2.096;2023-05-10T16:04:00;2.70;;;1.47;;
10511;SDS011;5304;48.604;2.096;2023-05-10T16:06:44;3.37;;;1.60;;
10511;SDS011;5304;48.604;2.096;2023-05-10T16:09:29;2.37;;;1.50;;
10511;SDS011;5304;48.604;2.096;2023-05-10T16:12:13;4.20;;;1.40;;
10511;SDS011;5304;48.604;2.096;2023-05-10T16:14:58;4.90;;;1.70;;
10511;SDS011;5304;48.604;2.096;2023-05-10T16:17:42;2.60;;;1.50;;
10511;SDS011;5304;48.604;2.096;2023-05-10T16:20:27;2.33;;;1.60;;
10511;SDS011;5304;48.604;2.096;2023-05-10T16:23:12;3.33;;;1.70;;
10511;SDS011;5304;48.604;2.096;2023-05-10T16:25:57;2.93;;;1.60;;
10511;SDS011;5304;48.604;2.096;2023-05-10T16:28:42;2.73;;;1.77;;
10511;SDS011;5304;48.604;2.096;2023-05-10T16:31:26;2.63;;;1.80;;
10511;SDS011;5304;48.604;2.096;2023-05-10T16:34:11;3.37;;;1.40;;
10511;SDS011;5304;48.604;2.096;2023-05-10T16:36:55;5.13;;;1.97;;
10511;SDS011;5304;48.604;2.096;2023-05-10T16:39:40;4.83;;;2.00;;
10511;SDS011;5304;48.604;2.096;2023-05-10T16:42:25;5.03;;;1.60;;
10511;SDS011;5304;48.604;2.096;2023-05-10T16:45:11;5.80;;;1.67;;
10511;SDS011;5304;48.604;2.096;2023-05-10T16:47:55;3.30;;;2.00;;
10511;SDS011;5304;48.604;2.096;2023-05-10T16:50:42;2.57;;;1.40;;
10511;SDS011;5304;48.604;2.096;2023-05-10T16:53:27;6.23;;;1.50;;
10511;SDS011;5304;48.604;2.096;2023-05-10T16:56:12;3.87;;;1.70;;
10511;SDS011;5304;48.604;2.096;2023-05-10T16:58:58;3.27;;;1.90;;
10511;SDS011;5304;48.604;2.096;2023-05-10T17:01:42;3.93;;;1.73;;
10511;SDS011;5304;48.604;2.096;2023-05-10T17:04:28;3.73;;;1.60;;
10511;SDS011;5304;48.604;2.096;2023-05-10T17:07:12;1.87;;;1.53;;
10511;SDS011;5304;48.604;2.096;2023-05-10T17:09:57;3.67;;;1.57;;
10511;SDS011;5304;48.604;2.096;2023-05-10T17:12:42;3.07;;;1.57;;
10511;SDS011;5304;48.604;2.096;2023-05-10T17:15:26;4.47;;;1.70;;
10511;SDS011;5304;48.604;2.096;2023-05-10T17:18:11;2.40;;;1.50;;
10511;SDS011;5304;48.604;2.096;2023-05-10T17:20:56;4.63;;;1.57;;
10511;SDS011;5304;48.604;2.096;2023-05-10T17:23:41;2.37;;;1.30;;
10511;SDS011;5304;48.604;2.096;2023-05-10T17:26:25;4.10;;;1.40;;